ELLX/LUX METAR and TAF weather

Enter ICAO airport designator
Station Type Date Time Source
ELLX METAR 2018/12/13 15:20 UTC NOAA

ELLX 131520Z 08009KT 020V120 9999 FEW024 BKN026 M01/M06 Q1015 NOSIG


Station Type Date Time Source
ELLX Decoded METAR 2018/12/13 15:20 UTC NOAA

Luxembourg / Luxembourg, Luxembourg (ELLX) 49-37N 006-13E 379M
Dec 13, 2018 - 10:20 AM EST / 2018.12.13 1520 UTC
Wind: from the E (080 degrees) at 10 MPH (9 KT) (direction variable):0
Visibility: greater than 7 mile(s):0
Sky conditions: mostly cloudy
Temperature: 30 F (-1 C)
Windchill: 21 F (-6 C):1
Dew Point: 21 F (-6 C)
Relative Humidity: 68%
Pressure (altimeter): 29.97 in. Hg (1015 hPa)
ob: ELLX 131520Z 08009KT 020V120 9999 FEW024 BKN026 M01/M06 Q1015 NOSIG
cycle: 15

Station Type Date Time Source
ELLX TAF 2018/12/13 12:27 UTC NOAA

TAF ELLX 131100Z 1312/1418 08010KT 9999 SCT020
TEMPO 1312/1318 07010G25KT


Example: see airport list